createdAt,value
2022-08-26T00:01:54.098Z,25.70
2022-08-26T00:04:23.851Z,25.60
2022-08-26T00:06:52.257Z,25.60
2022-08-26T00:09:20.445Z,25.60
2022-08-26T00:11:48.567Z,25.60
2022-08-26T00:14:16.607Z,25.50
2022-08-26T00:16:47.141Z,25.60
2022-08-26T00:19:16.331Z,25.60
2022-08-26T00:21:44.898Z,25.70
2022-08-26T00:24:13.322Z,25.80
2022-08-26T00:26:41.619Z,25.80
2022-08-26T00:29:10.889Z,25.80
2022-08-26T00:31:38.960Z,25.70
2022-08-26T00:34:11.141Z,25.70
2022-08-26T00:36:40.722Z,25.70
2022-08-26T00:39:09.037Z,25.60
2022-08-26T00:41:38.650Z,25.60
2022-08-26T00:44:07.163Z,25.60
2022-08-26T00:46:36.188Z,25.60
2022-08-26T00:49:12.003Z,25.70
2022-08-26T00:51:45.311Z,25.80
2022-08-26T00:54:13.329Z,25.80
2022-08-26T00:56:44.378Z,25.80
2022-08-26T00:59:15.223Z,25.70
2022-08-26T01:01:45.912Z,25.70
2022-08-26T01:04:15.332Z,25.60
2022-08-26T01:06:44.621Z,25.60
2022-08-26T01:09:12.807Z,25.50
2022-08-26T01:11:40.815Z,25.50
2022-08-26T01:14:08.807Z,25.50
2022-08-26T01:16:37.660Z,25.40
2022-08-26T01:19:09.112Z,25.40
2022-08-26T01:21:41.213Z,25.40
2022-08-26T01:24:10.661Z,25.50
2022-08-26T01:26:41.268Z,25.70
2022-08-26T01:29:11.372Z,25.90
2022-08-26T01:31:41.634Z,26.20
2022-08-26T01:34:13.359Z,26.50
2022-08-26T01:36:41.264Z,26.70
2022-08-26T01:39:11.349Z,26.90
2022-08-26T01:41:40.510Z,27.10
2022-08-26T01:44:15.663Z,27.20
2022-08-26T01:46:43.757Z,27.30
2022-08-26T01:49:11.952Z,27.40
2022-08-26T01:51:39.990Z,27.40
2022-08-26T01:54:11.952Z,27.40
2022-08-26T01:56:43.091Z,27.30
2022-08-26T01:59:12.814Z,27.00
2022-08-26T02:01:41.983Z,26.80
2022-08-26T02:04:14.398Z,26.60
2022-08-26T02:06:42.543Z,26.50
2022-08-26T02:09:10.645Z,26.40
2022-08-26T02:11:38.761Z,26.20
2022-08-26T02:14:11.058Z,26.10
2022-08-26T02:16:42.462Z,26.10
2022-08-26T02:19:17.208Z,26.00
2022-08-26T02:21:46.068Z,26.00
2022-08-26T02:24:20.616Z,25.90
2022-08-26T02:26:48.617Z,25.90
2022-08-26T02:29:21.972Z,26.10
2022-08-26T02:31:50.109Z,26.20
2022-08-26T02:34:20.926Z,26.30
2022-08-26T02:36:49.374Z,26.30
2022-08-26T02:39:22.276Z,26.20
2022-08-26T02:41:50.807Z,26.10
2022-08-26T02:44:20.225Z,26.10
2022-08-26T02:46:48.488Z,26.00
2022-08-26T02:49:17.289Z,25.90
2022-08-26T02:51:45.382Z,25.90
2022-08-26T02:54:13.435Z,25.80
2022-08-26T02:56:41.451Z,25.80
2022-08-26T02:59:12.249Z,25.80
2022-08-26T03:01:41.619Z,25.70
2022-08-26T03:04:11.197Z,25.70
2022-08-26T03:06:41.462Z,25.70
2022-08-26T03:09:09.896Z,25.90
2022-08-26T03:11:47.164Z,26.00
2022-08-26T03:14:15.163Z,26.10
2022-08-26T03:16:45.279Z,26.00
2022-08-26T03:19:17.584Z,25.90
2022-08-26T03:21:47.450Z,25.90
2022-08-26T03:24:17.463Z,25.90
2022-08-26T03:26:52.956Z,25.80
2022-08-26T03:29:38.732Z,25.70
2022-08-26T03:32:08.574Z,25.70
2022-08-26T03:34:36.681Z,25.70
2022-08-26T03:37:04.961Z,25.60
2022-08-26T03:39:33.252Z,25.60
2022-08-26T03:42:01.473Z,25.60
2022-08-26T03:44:29.906Z,25.70
2022-08-26T03:46:57.898Z,25.80
2022-08-26T03:49:29.005Z,25.90
2022-08-26T03:51:57.105Z,26.00
2022-08-26T03:54:25.042Z,25.90
2022-08-26T03:56:53.887Z,25.90
2022-08-26T03:59:21.822Z,25.90
2022-08-26T04:01:49.891Z,25.80
2022-08-26T04:04:18.149Z,25.80
2022-08-26T04:06:56.331Z,25.70
2022-08-26T04:09:24.266Z,25.70
2022-08-26T04:11:53.048Z,25.60
2022-08-26T04:14:22.307Z,25.60
2022-08-26T04:16:50.513Z,25.60
2022-08-26T04:19:19.139Z,25.60
2022-08-26T04:21:47.791Z,25.60
2022-08-26T04:24:17.882Z,25.70
2022-08-26T04:26:45.864Z,25.80
2022-08-26T04:29:14.991Z,25.90
2022-08-26T04:31:43.184Z,25.90
2022-08-26T04:34:11.229Z,25.90
2022-08-26T04:36:43.006Z,25.80
2022-08-26T04:39:14.117Z,25.80
2022-08-26T04:41:43.533Z,25.70
2022-08-26T04:44:11.674Z,25.70
2022-08-26T04:46:43.961Z,25.60
2022-08-26T04:49:12.144Z,25.60
2022-08-26T04:51:40.266Z,25.60
2022-08-26T04:54:08.473Z,25.60
2022-08-26T04:56:37.665Z,25.60
2022-08-26T04:59:07.942Z,25.60
2022-08-26T05:01:45.249Z,25.60
2022-08-26T05:04:13.294Z,25.70
2022-08-26T05:06:44.304Z,25.80
2022-08-26T05:09:12.340Z,25.80
2022-08-26T05:11:43.266Z,25.80
2022-08-26T05:14:12.630Z,25.70
2022-08-26T05:16:40.649Z,25.70
2022-08-26T05:19:09.167Z,25.60
2022-08-26T05:21:38.565Z,25.60
2022-08-26T05:24:07.017Z,25.60
2022-08-26T05:26:35.653Z,25.60
2022-08-26T05:29:03.728Z,25.60
2022-08-26T05:31:33.754Z,25.50
2022-08-26T05:34:03.732Z,25.50
2022-08-26T05:36:33.374Z,25.50
2022-08-26T05:39:01.890Z,25.60
2022-08-26T05:41:34.181Z,25.70
2022-08-26T05:44:05.035Z,25.80
2022-08-26T05:46:34.661Z,25.80
2022-08-26T05:49:03.802Z,25.80
2022-08-26T05:51:31.851Z,25.80
2022-08-26T05:54:00.156Z,25.70
2022-08-26T05:56:28.953Z,25.70
2022-08-26T05:58:58.424Z,25.70
2022-08-26T06:01:27.790Z,25.60
2022-08-26T06:03:59.635Z,25.60
2022-08-26T06:06:30.858Z,25.60
2022-08-26T06:08:59.545Z,25.50
2022-08-26T06:11:27.937Z,25.50
2022-08-26T06:14:01.206Z,25.50
2022-08-26T06:16:31.373Z,25.60
2022-08-26T06:19:00.707Z,25.60
2022-08-26T06:21:29.997Z,25.70
2022-08-26T06:24:17.351Z,25.80
2022-08-26T06:26:50.656Z,25.80
2022-08-26T06:29:24.299Z,25.70
2022-08-26T06:31:52.891Z,25.70
2022-08-26T06:34:22.241Z,25.60
2022-08-26T06:36:52.264Z,25.60
2022-08-26T06:39:21.198Z,25.60
2022-08-26T06:41:49.539Z,25.60
2022-08-26T06:44:18.712Z,25.50
2022-08-26T06:46:50.297Z,25.50
2022-08-26T06:49:25.861Z,25.50
2022-08-26T06:51:58.131Z,25.50
2022-08-26T06:54:26.508Z,25.50
2022-08-26T06:56:56.692Z,25.60
2022-08-26T06:59:24.939Z,25.70
2022-08-26T07:01:53.552Z,25.70
2022-08-26T07:04:23.212Z,25.70
2022-08-26T07:06:52.832Z,25.70
2022-08-26T07:09:23.022Z,25.60
2022-08-26T07:11:51.257Z,25.60
2022-08-26T07:14:21.362Z,25.60
2022-08-26T07:16:50.214Z,25.50
2022-08-26T07:19:27.499Z,25.50
2022-08-26T07:21:58.736Z,25.50
2022-08-26T07:24:28.464Z,25.50
2022-08-26T07:27:00.361Z,25.40
2022-08-26T07:29:29.198Z,25.40
2022-08-26T07:31:57.181Z,25.50
2022-08-26T07:34:26.112Z,25.60
2022-08-26T07:36:55.310Z,25.60
2022-08-26T07:39:23.634Z,25.70
2022-08-26T07:41:52.992Z,25.70
2022-08-26T07:44:21.013Z,25.70
2022-08-26T07:46:52.279Z,25.60
2022-08-26T07:49:21.842Z,25.60
2022-08-26T07:51:50.237Z,25.60
2022-08-26T07:54:18.749Z,25.60
2022-08-26T07:56:47.437Z,25.50
2022-08-26T07:59:17.516Z,25.50
2022-08-26T08:01:45.896Z,25.50
2022-08-26T08:04:14.216Z,25.50
2022-08-26T08:06:43.867Z,25.40
2022-08-26T08:09:12.077Z,25.40
2022-08-26T08:11:40.469Z,25.50
2022-08-26T08:14:11.655Z,25.60
2022-08-26T08:16:46.041Z,25.70
2022-08-26T08:19:15.226Z,25.80
2022-08-26T08:21:43.402Z,25.70
2022-08-26T08:24:11.416Z,25.60
2022-08-26T08:26:39.402Z,25.60
2022-08-26T08:29:08.696Z,25.60
2022-08-26T08:34:26.385Z,25.50
2022-08-26T08:36:54.509Z,25.50
2022-08-26T08:39:22.699Z,25.50
2022-08-26T08:41:59.237Z,25.50
2022-08-26T08:47:02.396Z,25.40
2022-08-26T08:49:31.803Z,25.50
2022-08-26T08:52:01.170Z,25.60
2022-08-26T08:54:30.000Z,25.60
2022-08-26T08:57:00.486Z,25.60
2022-08-26T08:59:29.236Z,25.60
2022-08-26T09:02:03.010Z,25.60
2022-08-26T09:04:47.983Z,25.50
2022-08-26T09:07:18.393Z,25.50
2022-08-26T09:09:48.051Z,25.50
2022-08-26T09:12:18.981Z,25.50
2022-08-26T09:14:48.203Z,25.40
2022-08-26T09:17:23.630Z,25.40
2022-08-26T09:19:54.912Z,25.40
2022-08-26T09:22:30.372Z,25.40
2022-08-26T09:24:58.367Z,25.40
2022-08-26T09:27:41.091Z,25.40
2022-08-26T09:30:11.490Z,25.50
2022-08-26T09:32:40.115Z,25.60
2022-08-26T09:35:10.912Z,25.70
2022-08-26T09:37:41.838Z,25.70
2022-08-26T09:40:14.699Z,25.70
2022-08-26T09:42:42.729Z,25.60
2022-08-26T09:45:12.753Z,25.60
2022-08-26T09:47:52.290Z,25.60
2022-08-26T09:50:28.823Z,25.60
2022-08-26T09:53:16.269Z,25.50
2022-08-26T09:55:45.034Z,25.50
2022-08-26T09:58:16.533Z,25.50
2022-08-26T10:00:55.419Z,25.50
2022-08-26T10:03:27.061Z,25.50
2022-08-26T10:05:59.294Z,25.50
2022-08-26T10:08:28.609Z,25.60
2022-08-26T10:10:57.521Z,25.60
2022-08-26T10:13:30.058Z,25.70
2022-08-26T10:16:07.279Z,25.70
2022-08-26T10:18:40.939Z,25.70
2022-08-26T10:21:13.121Z,25.60
2022-08-26T10:23:42.932Z,25.60
2022-08-26T10:26:14.999Z,25.60
2022-08-26T10:28:45.067Z,25.60
2022-08-26T10:31:21.037Z,25.60
2022-08-26T10:34:00.095Z,25.50
2022-08-26T10:37:15.013Z,25.50
2022-08-26T10:39:38.446Z,25.50
2022-08-26T10:42:09.494Z,25.50
2022-08-26T10:44:39.228Z,25.50
2022-08-26T10:47:15.872Z,25.60
2022-08-26T10:49:44.259Z,25.70
2022-08-26T10:52:16.598Z,25.70
2022-08-26T10:54:45.872Z,25.70
2022-08-26T10:57:16.943Z,25.60
2022-08-26T10:59:52.469Z,25.60
2022-08-26T11:02:25.286Z,25.60
2022-08-26T11:04:56.041Z,25.60
2022-08-26T11:07:42.304Z,25.50
2022-08-26T11:10:13.877Z,25.50
2022-08-26T11:12:57.256Z,25.50
2022-08-26T11:15:59.561Z,25.50
2022-08-26T11:18:46.165Z,25.50
2022-08-26T11:22:06.001Z,25.50
2022-08-26T11:24:43.001Z,25.60
2022-08-26T11:27:30.392Z,25.80
2022-08-26T11:30:01.715Z,25.90
2022-08-26T11:32:48.668Z,25.90
2022-08-26T11:35:47.781Z,25.90
2022-08-26T11:38:19.026Z,25.80
2022-08-26T11:41:12.532Z,25.80
2022-08-26T11:43:40.652Z,25.70
2022-08-26T11:46:10.521Z,25.70
2022-08-26T11:48:39.323Z,25.60
2022-08-26T11:51:08.716Z,25.60
2022-08-26T11:53:38.016Z,25.70
2022-08-26T11:56:10.777Z,25.60
2022-08-26T11:58:42.693Z,25.60
2022-08-26T12:01:12.112Z,25.60
2022-08-26T12:03:41.804Z,25.70
2022-08-26T12:06:14.559Z,25.60
2022-08-26T12:08:43.912Z,25.60
2022-08-26T12:11:14.671Z,25.70
2022-08-26T12:13:42.830Z,25.80
2022-08-26T12:16:13.564Z,26.00
2022-08-26T12:18:41.829Z,26.10
2022-08-26T12:21:14.588Z,26.00
2022-08-26T12:23:45.432Z,26.00
2022-08-26T12:26:23.649Z,25.90
2022-08-26T12:28:54.592Z,25.90
2022-08-26T12:31:25.327Z,25.90
2022-08-26T12:33:54.038Z,25.90
2022-08-26T12:36:24.414Z,25.80
2022-08-26T12:38:54.547Z,25.80
2022-08-26T12:41:47.039Z,25.90
2022-08-26T12:44:54.120Z,25.80
2022-08-26T12:47:30.897Z,25.80
2022-08-26T12:50:11.893Z,25.80
2022-08-26T12:52:42.767Z,25.90
2022-08-26T12:55:20.244Z,26.00
2022-08-26T12:57:49.563Z,26.00
2022-08-26T13:00:31.725Z,26.00
2022-08-26T13:03:00.100Z,25.90
2022-08-26T13:05:28.952Z,25.90
2022-08-26T13:08:16.577Z,25.90
2022-08-26T13:10:46.220Z,25.90
2022-08-26T13:13:15.560Z,25.80
2022-08-26T13:15:44.212Z,25.70
2022-08-26T13:18:12.207Z,25.70
2022-08-26T13:20:44.001Z,25.70
2022-08-26T13:23:12.165Z,25.70
2022-08-26T13:25:40.269Z,25.70
2022-08-26T13:28:08.154Z,25.70
2022-08-26T13:30:37.483Z,25.80
2022-08-26T13:33:05.644Z,25.90
2022-08-26T13:35:34.410Z,26.00
2022-08-26T13:38:02.465Z,25.90
2022-08-26T13:40:34.507Z,25.90
2022-08-26T13:43:02.731Z,25.90
2022-08-26T13:45:31.590Z,25.80
2022-08-26T13:48:00.917Z,25.80
2022-08-26T13:50:28.893Z,25.70
2022-08-26T13:52:56.814Z,25.70
2022-08-26T13:55:24.795Z,25.70
2022-08-26T13:57:53.161Z,25.80
2022-08-26T14:00:21.385Z,25.90
2022-08-26T14:02:49.453Z,25.90
2022-08-26T14:05:18.835Z,25.90
2022-08-26T14:07:48.889Z,25.90
2022-08-26T14:10:16.909Z,25.80
2022-08-26T14:12:45.690Z,25.80
2022-08-26T14:15:16.151Z,25.80
2022-08-26T14:17:44.158Z,25.70
2022-08-26T14:20:13.069Z,25.70
2022-08-26T14:22:57.478Z,25.70
2022-08-26T14:25:30.795Z,25.70
2022-08-26T14:27:58.792Z,25.60
2022-08-26T14:30:26.785Z,25.60
2022-08-26T14:32:56.114Z,25.60
2022-08-26T14:35:25.330Z,25.70
2022-08-26T14:37:54.673Z,25.80
2022-08-26T14:40:23.251Z,25.90
2022-08-26T14:42:53.959Z,26.00
2022-08-26T14:45:23.169Z,26.00
2022-08-26T14:47:51.725Z,25.90
2022-08-26T14:50:22.518Z,25.90
2022-08-26T14:53:08.078Z,25.90
2022-08-26T14:55:39.764Z,25.80
2022-08-26T14:58:09.341Z,25.70
2022-08-26T15:00:37.502Z,25.70
2022-08-26T15:03:05.699Z,25.70
2022-08-26T15:05:33.885Z,25.70
2022-08-26T15:08:02.597Z,25.70
2022-08-26T15:10:30.677Z,25.60
2022-08-26T15:13:00.992Z,25.60
2022-08-26T15:15:29.587Z,25.70
2022-08-26T15:17:57.655Z,25.60
2022-08-26T15:20:27.727Z,25.60
2022-08-26T15:22:55.746Z,25.70
2022-08-26T15:25:23.962Z,25.80
2022-08-26T15:27:52.381Z,25.90
2022-08-26T15:30:21.766Z,26.00
2022-08-26T15:32:49.716Z,26.00
2022-08-26T15:35:18.106Z,26.00
2022-08-26T15:37:46.098Z,25.90
2022-08-26T15:40:14.380Z,25.90
2022-08-26T15:42:42.423Z,25.90
2022-08-26T15:45:10.987Z,25.90
2022-08-26T15:48:01.407Z,25.80
2022-08-26T15:50:28.901Z,25.80
2022-08-26T15:52:56.961Z,25.80
2022-08-26T15:55:25.054Z,25.70
2022-08-26T15:57:53.002Z,25.70
2022-08-26T16:00:21.242Z,25.70
2022-08-26T16:02:50.545Z,25.80
2022-08-26T16:05:18.827Z,25.90
2022-08-26T16:07:46.794Z,25.90
2022-08-26T16:10:14.833Z,25.90
2022-08-26T16:12:42.859Z,25.90
2022-08-26T16:15:11.970Z,25.90
2022-08-26T16:17:40.643Z,25.80
2022-08-26T16:20:11.043Z,25.80
2022-08-26T16:22:39.039Z,25.80
2022-08-26T16:25:08.076Z,25.80
2022-08-26T16:27:36.074Z,25.70
2022-08-26T16:30:06.127Z,25.70
2022-08-26T16:32:34.527Z,25.70
2022-08-26T16:35:02.472Z,25.70
2022-08-26T16:37:32.484Z,25.70
2022-08-26T16:40:01.086Z,25.70
2022-08-26T16:42:29.285Z,25.80
2022-08-26T16:44:57.309Z,25.90
2022-08-26T16:47:25.374Z,26.00
2022-08-26T16:49:53.352Z,26.00
2022-08-26T16:52:21.336Z,25.90
2022-08-26T16:54:54.174Z,25.90
2022-08-26T16:57:22.104Z,25.90
2022-08-26T16:59:50.040Z,25.90
2022-08-26T17:02:18.019Z,25.80
2022-08-26T17:04:47.146Z,25.80
2022-08-26T17:07:18.203Z,25.80
2022-08-26T17:09:46.164Z,25.80
2022-08-26T17:12:15.474Z,25.70
2022-08-26T17:14:43.467Z,25.70
2022-08-26T17:17:13.741Z,25.70
2022-08-26T17:19:45.569Z,25.80
2022-08-26T17:22:15.275Z,25.90
2022-08-26T17:24:43.261Z,26.00
2022-08-26T17:27:11.303Z,26.10
2022-08-26T17:29:40.950Z,26.00
2022-08-26T17:32:08.941Z,26.00
2022-08-26T17:34:36.887Z,25.90
2022-08-26T17:37:05.021Z,25.90
2022-08-26T17:39:33.062Z,25.90
2022-08-26T17:42:01.078Z,25.80
2022-08-26T17:44:29.509Z,25.80
2022-08-26T17:46:58.920Z,25.80
2022-08-26T17:49:27.877Z,25.80
2022-08-26T17:51:57.842Z,25.80
2022-08-26T17:54:27.484Z,25.70
2022-08-26T17:56:58.128Z,25.70
2022-08-26T17:59:30.475Z,25.70
2022-08-26T18:02:00.166Z,25.70
2022-08-26T18:04:28.456Z,25.70
2022-08-26T18:06:56.451Z,25.80
2022-08-26T18:09:24.372Z,25.90
2022-08-26T18:11:52.383Z,26.00
2022-08-26T18:14:20.331Z,26.10
2022-08-26T18:16:48.296Z,26.10
2022-08-26T18:19:17.674Z,26.10
2022-08-26T18:21:45.738Z,26.00
2022-08-26T18:24:14.389Z,26.00
2022-08-26T18:26:47.892Z,26.00
2022-08-26T18:29:16.071Z,25.90
2022-08-26T18:31:44.054Z,25.90
2022-08-26T18:34:15.254Z,25.90
2022-08-26T18:36:44.827Z,25.90
2022-08-26T18:39:13.459Z,25.80
2022-08-26T18:41:43.752Z,25.80
2022-08-26T18:44:13.820Z,25.80
2022-08-26T18:46:42.348Z,25.90
2022-08-26T18:49:11.438Z,26.00
2022-08-26T18:51:39.500Z,26.00
2022-08-26T18:54:09.278Z,26.10
2022-08-26T18:56:37.701Z,26.00
2022-08-26T18:59:06.121Z,26.00
2022-08-26T19:01:34.714Z,26.00
2022-08-26T19:04:03.633Z,25.90
2022-08-26T19:06:32.776Z,25.90
2022-08-26T19:09:00.826Z,25.90
2022-08-26T19:11:32.409Z,25.90
2022-08-26T19:14:06.367Z,25.90
2022-08-26T19:16:34.441Z,26.00
2022-08-26T19:19:02.606Z,26.10
2022-08-26T19:21:30.717Z,26.10
2022-08-26T19:23:58.901Z,26.10
2022-08-26T19:26:27.132Z,26.00
2022-08-26T19:28:56.528Z,26.00
2022-08-26T19:31:24.618Z,26.00
2022-08-26T19:33:52.643Z,26.00
2022-08-26T19:36:22.153Z,25.90
2022-08-26T19:38:50.226Z,25.90
2022-08-26T19:41:19.649Z,25.90
2022-08-26T19:43:47.739Z,25.90
2022-08-26T19:46:18.586Z,25.90
2022-08-26T19:48:47.051Z,25.90
2022-08-26T19:51:15.618Z,25.90
2022-08-26T19:53:43.981Z,26.00
2022-08-26T19:56:12.270Z,26.10
2022-08-26T19:58:40.358Z,26.10
2022-08-26T20:01:08.656Z,26.10
2022-08-26T20:03:38.226Z,26.10
2022-08-26T20:06:07.234Z,26.10
2022-08-26T20:08:35.593Z,26.00
2022-08-26T20:11:04.786Z,26.00
2022-08-26T20:13:32.809Z,26.00
2022-08-26T20:16:00.853Z,25.90
2022-08-26T20:18:46.071Z,25.90
2022-08-26T20:21:27.513Z,25.90
2022-08-26T20:23:56.241Z,25.90
2022-08-26T20:26:24.239Z,25.80
2022-08-26T20:28:52.201Z,25.90
2022-08-26T20:31:20.147Z,25.90
2022-08-26T20:33:48.189Z,26.10
2022-08-26T20:36:17.868Z,26.10
2022-08-26T20:38:46.189Z,26.10
2022-08-26T20:41:14.281Z,26.10
2022-08-26T20:43:42.631Z,26.00
2022-08-26T20:46:18.117Z,26.00
2022-08-26T20:48:48.285Z,26.00
2022-08-26T20:51:17.882Z,25.90
2022-08-26T20:53:45.897Z,25.90
2022-08-26T20:56:15.066Z,25.90
2022-08-26T20:58:43.067Z,25.90
2022-08-26T21:01:18.188Z,25.90
2022-08-26T21:03:46.463Z,25.80
2022-08-26T21:06:14.537Z,25.80
2022-08-26T21:08:44.917Z,25.90
2022-08-26T21:11:13.013Z,26.00
2022-08-26T21:14:01.686Z,26.10
2022-08-26T21:16:29.168Z,26.10
2022-08-26T21:18:57.597Z,26.10
2022-08-26T21:21:28.376Z,26.10
2022-08-26T21:23:57.766Z,26.00
2022-08-26T21:26:25.867Z,26.00
2022-08-26T21:28:53.909Z,25.90
2022-08-26T21:31:23.824Z,25.90
2022-08-26T21:33:51.863Z,25.90
2022-08-26T21:36:20.086Z,25.90
2022-08-26T21:38:48.163Z,26.10
2022-08-26T21:41:19.462Z,26.10
2022-08-26T21:43:47.754Z,26.10
2022-08-26T21:46:16.709Z,26.10
2022-08-26T21:48:50.334Z,26.00
2022-08-26T21:51:19.709Z,26.00
2022-08-26T21:53:47.690Z,26.00
2022-08-26T21:56:18.171Z,25.90
2022-08-26T21:58:46.287Z,25.90
2022-08-26T22:01:15.801Z,25.90
2022-08-26T22:03:46.972Z,25.90
2022-08-26T22:06:15.786Z,25.90
2022-08-26T22:08:43.722Z,25.90
2022-08-26T22:11:11.894Z,25.80
2022-08-26T22:13:41.561Z,25.90
2022-08-26T22:16:10.125Z,25.90
2022-08-26T22:18:38.300Z,26.10
2022-08-26T22:21:07.306Z,26.10
2022-08-26T22:23:35.596Z,26.20
2022-08-26T22:26:03.658Z,26.10
2022-08-26T22:28:31.719Z,26.10
2022-08-26T22:31:01.921Z,26.10
2022-08-26T22:33:29.994Z,26.00
2022-08-26T22:35:57.927Z,26.00
2022-08-26T22:38:25.919Z,25.90
2022-08-26T22:40:56.494Z,25.90
2022-08-26T22:43:24.630Z,25.90
2022-08-26T22:45:52.880Z,25.90
2022-08-26T22:48:23.142Z,25.80
2022-08-26T22:50:51.321Z,25.80
2022-08-26T22:53:19.350Z,25.90
2022-08-26T22:55:47.440Z,26.00
2022-08-26T22:58:17.545Z,26.10
2022-08-26T23:00:45.824Z,26.10
2022-08-26T23:03:13.890Z,26.10
2022-08-26T23:05:43.266Z,26.10
2022-08-26T23:08:12.399Z,26.00
2022-08-26T23:10:41.509Z,26.00
2022-08-26T23:13:09.576Z,25.90
2022-08-26T23:15:37.611Z,25.90
2022-08-26T23:18:05.664Z,25.90
2022-08-26T23:20:33.701Z,25.90
2022-08-26T23:23:03.045Z,25.90
2022-08-26T23:25:32.286Z,25.80
2022-08-26T23:28:00.419Z,25.80
2022-08-26T23:30:29.352Z,25.80
2022-08-26T23:32:57.340Z,25.90
2022-08-26T23:35:24.632Z,26.00
2022-08-26T23:37:52.869Z,26.10
2022-08-26T23:40:25.328Z,26.10
2022-08-26T23:42:53.641Z,26.10
2022-08-26T23:45:22.020Z,26.00
2022-08-26T23:47:50.765Z,26.00
2022-08-26T23:50:18.776Z,26.00
2022-08-26T23:53:04.332Z,25.90
2022-08-26T23:55:35.965Z,25.90
2022-08-26T23:58:04.011Z,25.90
